createdAt,value
2022-08-08T00:00:55.557Z,149877.38
2022-08-08T00:01:52.616Z,149862.78
2022-08-08T00:03:31.590Z,149876.16
2022-08-08T00:05:00.661Z,149866.44
2022-08-08T00:06:28.451Z,149828.69
2022-08-08T00:08:03.642Z,149868.84
2022-08-08T00:09:35.930Z,149845.72
2022-08-08T00:10:56.026Z,149831.13
2022-08-08T00:12:09.403Z,149793.38
2022-08-08T00:14:17.271Z,149820.13
2022-08-08T00:15:00.611Z,149801.91
2022-08-08T00:16:11.045Z,149789.69
2022-08-08T00:17:47.974Z,149815.28
2022-08-08T00:19:17.758Z,149771.41
2022-08-08T00:20:29.711Z,149771.41
2022-08-08T00:21:39.614Z,149731.25
2022-08-08T00:22:50.208Z,149728.84
2022-08-08T00:23:57.726Z,149712.97
2022-08-08T00:25:12.059Z,149727.63
2022-08-08T00:26:29.539Z,149725.13
2022-08-08T00:27:36.923Z,149703.25
2022-08-08T00:28:44.319Z,149706.91
2022-08-08T00:29:49.777Z,149632.69
2022-08-08T00:31:00.629Z,149700.84
2022-08-08T00:32:42.634Z,149727.63
2022-08-08T00:34:18.738Z,149722.72
2022-08-08T00:35:48.780Z,149748.28
2022-08-08T00:37:03.513Z,149717.84
2022-08-08T00:38:16.717Z,149727.63
2022-08-08T00:41:11.863Z,149720.28
2022-08-08T00:41:54.568Z,149744.63
2022-08-08T00:42:50.184Z,149715.41
2022-08-08T00:44:10.702Z,149625.34
2022-08-08T00:45:35.402Z,149710.56
2022-08-08T00:46:59.190Z,149730.03
2022-08-08T00:48:30.327Z,149756.78
2022-08-08T00:49:59.215Z,149775.06
2022-08-08T00:51:18.301Z,149659.41
2022-08-08T00:52:45.175Z,149781.19
2022-08-08T00:54:15.718Z,149761.69
2022-08-08T00:55:54.158Z,149771.41
2022-08-08T00:57:23.562Z,149764.13
2022-08-08T00:59:15.387Z,149749.50
2022-08-08T01:00:27.385Z,149700.84
2022-08-08T01:01:48.897Z,149725.13
2022-08-08T01:04:02.739Z,149715.41
2022-08-08T01:05:42.398Z,149703.25
2022-08-08T01:07:23.707Z,149689.84
2022-08-08T01:08:52.015Z,149658.22
2022-08-08T01:10:14.574Z,149678.91
2022-08-08T01:11:52.113Z,149663.09
2022-08-08T01:13:52.595Z,149672.84
2022-08-08T01:15:44.251Z,149635.13
2022-08-08T01:17:17.815Z,149674.03
2022-08-08T01:18:53.791Z,149676.47
2022-08-08T01:20:21.773Z,149676.47
2022-08-08T01:22:13.649Z,149683.78
2022-08-08T01:24:05.626Z,149655.78
2022-08-08T01:25:40.082Z,149658.22
2022-08-08T01:27:33.028Z,149666.75
2022-08-08T01:28:59.297Z,149642.41
2022-08-08T01:30:10.962Z,149647.28
2022-08-08T01:32:05.541Z,149672.84
2022-08-08T01:32:58.081Z,149661.91
2022-08-08T01:34:29.291Z,149665.53
2022-08-08T01:35:55.806Z,149637.53
2022-08-08T01:37:17.475Z,149660.69
2022-08-08T01:38:46.010Z,149652.13
2022-08-08T01:40:14.743Z,149636.34
2022-08-08T01:41:43.960Z,149620.50
2022-08-08T01:42:58.452Z,149608.34
2022-08-08T01:44:10.874Z,149598.63
2022-08-08T01:45:54.420Z,149619.28
2022-08-08T01:48:16.766Z,149632.69
2022-08-08T01:49:22.868Z,149592.50
2022-08-08T01:50:44.288Z,149601.03
2022-08-08T01:54:01.127Z,149592.50
2022-08-08T01:55:17.986Z,149571.84
2022-08-08T01:56:28.325Z,149605.91
2022-08-08T01:57:33.834Z,149523.09
2022-08-08T01:59:07.832Z,149513.38
2022-08-08T02:00:20.207Z,149520.69
2022-08-08T02:02:05.168Z,149614.41
2022-08-08T02:03:56.090Z,149605.91
2022-08-08T02:05:08.682Z,149555.97
2022-08-08T02:06:32.747Z,149545.03
2022-08-08T02:08:06.891Z,149570.63
2022-08-08T02:10:11.546Z,149557.16
2022-08-08T02:12:00.117Z,149564.56
2022-08-08T02:13:54.100Z,149558.38
2022-08-08T02:15:04.119Z,149524.31
2022-08-08T02:16:56.237Z,149564.56
2022-08-08T02:18:15.844Z,149562.13
2022-08-08T02:20:07.967Z,149517.03
2022-08-08T02:21:34.672Z,149538.94
2022-08-08T02:22:55.187Z,149529.22
2022-08-08T02:24:17.666Z,149518.25
2022-08-08T02:25:46.872Z,149518.25
2022-08-08T02:27:01.096Z,149436.78
2022-08-08T02:28:10.877Z,149486.63
2022-08-08T02:29:46.843Z,149430.66
2022-08-08T02:31:04.830Z,149509.75
2022-08-08T02:33:05.627Z,149500.03
2022-08-08T02:34:09.798Z,149403.94
2022-08-08T02:36:12.579Z,149502.47
2022-08-08T02:37:53.444Z,149503.66
2022-08-08T02:39:40.718Z,149487.84
2022-08-08T02:40:58.640Z,149413.66
2022-08-08T02:42:41.501Z,149498.81
2022-08-08T02:44:38.279Z,149480.53
2022-08-08T02:46:36.523Z,149459.84
2022-08-08T02:48:13.645Z,149474.47
2022-08-08T02:49:48.207Z,149455.00
2022-08-08T02:51:46.416Z,149457.41
2022-08-08T02:53:24.212Z,149416.06
2022-08-08T02:54:53.846Z,149412.44
2022-08-08T02:56:01.576Z,149425.78
2022-08-08T02:57:44.384Z,149399.09
2022-08-08T02:59:57.955Z,149413.66
2022-08-08T03:01:19.657Z,149399.09
2022-08-08T03:02:40.730Z,149395.38
2022-08-08T03:05:03.694Z,149406.38
2022-08-08T03:06:04.783Z,149390.53
2022-08-08T03:07:57.981Z,149386.88
2022-08-08T03:09:33.125Z,149397.81
2022-08-08T03:12:01.674Z,149372.31
2022-08-08T03:13:34.143Z,149374.75
2022-08-08T03:16:01.307Z,149352.84
2022-08-08T03:16:48.946Z,149364.97
2022-08-08T03:18:06.389Z,149346.78
2022-08-08T03:19:51.589Z,149355.28
2022-08-08T03:20:56.202Z,149231.19
2022-08-08T03:22:01.624Z,149231.19
2022-08-08T03:23:05.403Z,149227.56
2022-08-08T03:24:09.047Z,149243.38
2022-08-08T03:25:18.793Z,149283.50
2022-08-08T03:26:41.973Z,149307.81
2022-08-08T03:27:59.274Z,149330.88
2022-08-08T03:29:16.950Z,149307.81
2022-08-08T03:30:24.958Z,149277.41
2022-08-08T03:32:06.522Z,149242.16
2022-08-08T03:33:55.079Z,149247.03
2022-08-08T03:34:44.703Z,149253.09
2022-08-08T03:35:50.503Z,149289.56
2022-08-08T03:36:55.229Z,149260.38
2022-08-08T03:38:53.538Z,149328.47
2022-08-08T03:39:24.414Z,149257.94
2022-08-08T03:40:29.399Z,149248.25
2022-08-08T03:42:27.321Z,149290.78
2022-08-08T03:42:58.798Z,149243.38
2022-08-08T03:44:20.446Z,149245.81
2022-08-08T03:46:05.233Z,149272.56
2022-08-08T03:46:52.326Z,149243.38
2022-08-08T03:48:02.989Z,149283.50
2022-08-08T03:49:58.574Z,149330.88
2022-08-08T03:50:48.594Z,149332.09
2022-08-08T03:51:55.418Z,149290.78
2022-08-08T03:53:12.583Z,149299.28
2022-08-08T03:54:51.851Z,149273.78
2022-08-08T03:55:56.023Z,149328.47
2022-08-08T03:58:31.445Z,149281.06
2022-08-08T03:58:34.521Z,149345.56
2022-08-08T04:00:07.335Z,149306.59
2022-08-08T04:01:26.036Z,149306.59
2022-08-08T04:02:36.825Z,149299.28
2022-08-08T04:03:58.256Z,149295.63
2022-08-08T04:05:10.135Z,149296.84
2022-08-08T04:06:15.718Z,149301.75
2022-08-08T04:07:19.105Z,149270.13
2022-08-08T04:08:33.136Z,149299.28
2022-08-08T04:10:05.088Z,149266.44
2022-08-08T04:11:11.497Z,149338.28
2022-08-08T04:12:21.177Z,149272.56
2022-08-08T04:13:25.717Z,149259.16
2022-08-08T04:14:36.206Z,149265.22
2022-08-08T04:15:40.114Z,149265.22
2022-08-08T04:17:02.632Z,149267.72
2022-08-08T04:18:06.941Z,149265.22
2022-08-08T04:19:20.844Z,149272.56
2022-08-08T04:20:28.826Z,149267.72
2022-08-08T04:21:38.023Z,149265.22
2022-08-08T04:22:43.610Z,149267.72
2022-08-08T04:24:05.216Z,149259.16
2022-08-08T04:25:13.134Z,149294.41
2022-08-08T04:26:18.181Z,149282.28
2022-08-08T04:28:02.376Z,149304.19
2022-08-08T04:28:44.771Z,149313.91
2022-08-08T04:29:55.396Z,149329.69
2022-08-08T04:31:04.581Z,149340.69
2022-08-08T04:32:10.673Z,149349.19
2022-08-08T04:33:15.842Z,149360.13
2022-08-08T04:34:18.571Z,149367.47
2022-08-08T04:35:23.208Z,149378.38
2022-08-08T04:36:27.141Z,149382.03
2022-08-08T04:37:32.283Z,149385.66
2022-08-08T04:38:38.738Z,149391.75
2022-08-08T04:40:03.216Z,149425.78
2022-08-08T04:41:10.621Z,149417.28
2022-08-08T04:42:20.705Z,149416.06
2022-08-08T04:43:31.927Z,149425.78
2022-08-08T04:44:54.893Z,149423.38
2022-08-08T04:45:57.319Z,149425.78
2022-08-08T04:47:00.067Z,149447.72
2022-08-08T04:48:03.621Z,149489.03
2022-08-08T04:49:11.273Z,149462.28
2022-08-08T04:50:24.300Z,149478.13
2022-08-08T04:51:54.781Z,149481.75
2022-08-08T04:52:58.932Z,149491.47
2022-08-08T04:54:40.304Z,149487.84
2022-08-08T04:55:47.490Z,149496.38
2022-08-08T04:56:54.494Z,149507.31
2022-08-08T04:57:59.289Z,149514.59
2022-08-08T04:59:02.216Z,149529.22
2022-08-08T05:00:06.320Z,149585.22
2022-08-08T05:01:11.335Z,149546.22
2022-08-08T05:02:20.234Z,149562.13
2022-08-08T05:04:08.224Z,149571.84
2022-08-08T05:04:48.439Z,149584.00
2022-08-08T05:05:53.446Z,149601.03
2022-08-08T05:06:57.453Z,149610.78
2022-08-08T05:07:59.984Z,149646.06
2022-08-08T05:09:06.109Z,149649.69
2022-08-08T05:10:12.848Z,149654.56
2022-08-08T05:11:22.763Z,149653.34
2022-08-08T05:12:29.523Z,149657.00
2022-08-08T05:13:32.059Z,149674.03
2022-08-08T05:14:35.752Z,149693.53
2022-08-08T05:16:55.239Z,149682.56
2022-08-08T05:17:09.079Z,149710.56
2022-08-08T05:18:13.188Z,149717.84
2022-08-08T05:20:10.985Z,149742.19
2022-08-08T05:20:48.355Z,149770.19
2022-08-08T05:21:59.935Z,149793.38
2022-08-08T05:23:04.773Z,149812.84
2022-08-08T05:24:10.648Z,149856.66
2022-08-08T05:25:13.979Z,149850.56
2022-08-08T05:26:19.925Z,149861.56
2022-08-08T05:27:23.043Z,149877.38
2022-08-08T05:28:52.410Z,149888.31
2022-08-08T05:29:50.206Z,149900.53
2022-08-08T05:30:54.459Z,149912.69
2022-08-08T05:32:06.122Z,149941.91
2022-08-08T05:33:10.045Z,149965.06
2022-08-08T05:34:49.206Z,150088.13
2022-08-08T05:35:54.829Z,150121.03
2022-08-08T05:37:00.104Z,150080.78
2022-08-08T05:38:29.344Z,150114.91
2022-08-08T05:39:34.952Z,150075.94
2022-08-08T05:40:45.539Z,150131.97
2022-08-08T05:41:55.204Z,150149.00
2022-08-08T05:43:38.309Z,150174.63
2022-08-08T05:44:37.307Z,150192.97
2022-08-08T05:45:53.137Z,150129.56
2022-08-08T05:47:03.026Z,150188.09
2022-08-08T05:48:08.784Z,150183.13
2022-08-08T05:49:13.452Z,150212.44
2022-08-08T05:50:19.129Z,150217.28
2022-08-08T05:51:22.318Z,150229.50
2022-08-08T05:52:35.472Z,150283.09
2022-08-08T05:54:26.148Z,150236.81
2022-08-08T05:55:09.675Z,150327.00
2022-08-08T05:56:15.437Z,150344.06
2022-08-08T05:58:04.065Z,150386.78
2022-08-08T05:58:56.905Z,150398.97
2022-08-08T06:00:23.408Z,150474.53
2022-08-08T06:01:55.979Z,150424.59
2022-08-08T06:03:23.704Z,150537.97
2022-08-08T06:04:32.909Z,150575.81
2022-08-08T06:05:48.617Z,150624.63
2022-08-08T06:07:00.239Z,150627.06
2022-08-08T06:08:09.602Z,150657.56
2022-08-08T06:09:59.176Z,150683.19
2022-08-08T06:10:41.806Z,150727.09
2022-08-08T06:11:46.216Z,150629.50
2022-08-08T06:12:51.342Z,150758.84
2022-08-08T06:13:54.205Z,150751.53
2022-08-08T06:15:02.820Z,150845.50
2022-08-08T06:16:13.876Z,150834.50
2022-08-08T06:17:51.587Z,150920.00
2022-08-08T06:19:04.254Z,150913.84
2022-08-08T06:20:12.953Z,150905.28
2022-08-08T06:21:32.696Z,150938.28
2022-08-08T06:22:43.199Z,150795.44
2022-08-08T06:24:02.279Z,150758.84
2022-08-08T06:25:07.129Z,150846.72
2022-08-08T06:26:44.626Z,150888.22
2022-08-08T06:27:39.459Z,150858.91
2022-08-08T06:28:54.080Z,150838.16
2022-08-08T06:30:05.128Z,150906.50
2022-08-08T06:31:19.761Z,150938.28
2022-08-08T06:32:30.798Z,150954.16
2022-08-08T06:34:25.545Z,150976.16
2022-08-08T06:36:06.925Z,150916.28
2022-08-08T06:36:57.224Z,150941.97
2022-08-08T06:38:09.331Z,150966.34
2022-08-08T06:39:21.877Z,151002.97
2022-08-08T06:40:28.296Z,151018.88
2022-08-08T06:41:34.558Z,151093.38
2022-08-08T06:42:39.976Z,151050.59
2022-08-08T06:43:47.707Z,151090.94
2022-08-08T06:45:06.143Z,151138.53
2022-08-08T06:46:12.795Z,151200.81
2022-08-08T06:47:22.134Z,151390.22
2022-08-08T06:48:26.708Z,151555.25
2022-08-08T06:49:56.498Z,151645.75
2022-08-08T06:50:55.613Z,151889.19
2022-08-08T06:51:59.811Z,152142.47
2022-08-08T06:53:09.733Z,152207.41
2022-08-08T06:54:16.316Z,152047.03
2022-08-08T06:55:23.412Z,152171.91
2022-08-08T06:56:26.370Z,152238.00
2022-08-08T06:57:54.850Z,152343.31
2022-08-08T06:58:51.362Z,152262.50
2022-08-08T07:00:09.931Z,152345.75
2022-08-08T07:02:18.171Z,152223.28
2022-08-08T07:02:51.637Z,152392.31
2022-08-08T07:04:37.757Z,152228.22
2022-08-08T07:05:40.412Z,152189.00
2022-08-08T07:06:50.562Z,152306.59
2022-08-08T07:08:10.597Z,152213.50
2022-08-08T07:09:20.860Z,152376.38
2022-08-08T07:10:25.936Z,152297.97
2022-08-08T07:11:50.611Z,152230.66
2022-08-08T07:13:06.348Z,152228.22
2022-08-08T07:14:19.314Z,152198.84
2022-08-08T07:15:41.161Z,152167.03
2022-08-08T07:17:09.282Z,152219.63
2022-08-08T07:18:55.887Z,152536.81
2022-08-08T07:20:11.152Z,152747.59
2022-08-08T07:21:20.411Z,152925.34
2022-08-08T07:22:41.995Z,153132.56
2022-08-08T07:23:57.403Z,153274.84
2022-08-08T07:25:09.727Z,153346.03
2022-08-08T07:26:17.708Z,153321.47
2022-08-08T07:27:35.491Z,153149.72
2022-08-08T07:28:49.587Z,153215.94
2022-08-08T07:29:59.659Z,153142.38
2022-08-08T07:31:07.350Z,153341.13
2022-08-08T07:32:15.782Z,153224.59
2022-08-08T07:33:24.205Z,153337.41
2022-08-08T07:34:31.983Z,153283.47
2022-08-08T07:35:39.339Z,153158.34
2022-08-08T07:36:48.156Z,153289.59
2022-08-08T07:38:09.997Z,153544.78
2022-08-08T07:39:29.598Z,153390.22
2022-08-08T07:40:49.060Z,153411.03
2022-08-08T07:42:04.198Z,153279.75
2022-08-08T07:43:10.121Z,153338.63
2022-08-08T07:44:37.673Z,153267.50
2022-08-08T07:46:05.487Z,153633.19
2022-08-08T07:47:10.105Z,153692.13
2022-08-08T07:48:13.223Z,153800.16
2022-08-08T07:49:15.784Z,153902.09
2022-08-08T07:50:22.105Z,153585.38
2022-08-08T07:51:44.896Z,153662.66
2022-08-08T07:52:59.540Z,153677.34
2022-08-08T07:54:15.899Z,153581.69
2022-08-08T07:55:36.629Z,153400.00
2022-08-08T07:56:47.294Z,153603.75
2022-08-08T07:58:05.427Z,153760.88
2022-08-08T07:59:16.454Z,153792.81
2022-08-08T08:00:30.089Z,153716.72
2022-08-08T08:02:35.627Z,153496.97
2022-08-08T08:03:31.023Z,153023.44
2022-08-08T08:04:49.079Z,152859.16
2022-08-08T08:05:55.998Z,152732.91
2022-08-08T08:07:04.643Z,152975.59
2022-08-08T08:08:20.543Z,153126.47
2022-08-08T08:09:28.565Z,152930.22
2022-08-08T08:10:36.108Z,153071.22
2022-08-08T08:11:51.427Z,153072.44
2022-08-08T08:13:25.817Z,153174.25
2022-08-08T08:15:04.413Z,153022.22
2022-08-08T08:16:13.852Z,153260.16
2022-08-08T08:17:24.321Z,153375.47
2022-08-08T08:18:52.106Z,153730.19
2022-08-08T08:20:04.793Z,153798.94
2022-08-08T08:21:16.584Z,153854.22
2022-08-08T08:22:31.296Z,153775.59
2022-08-08T08:23:40.655Z,153844.38
2022-08-08T08:24:46.424Z,153876.28
2022-08-08T08:25:55.237Z,154013.88
2022-08-08T08:26:59.800Z,153999.13
2022-08-08T08:28:05.376Z,153988.09
2022-08-08T08:29:16.583Z,154092.50
2022-08-08T08:30:21.813Z,153957.41
2022-08-08T08:31:28.986Z,153924.19
2022-08-08T08:32:51.171Z,153903.31
2022-08-08T08:33:56.678Z,153888.59
2022-08-08T08:35:00.833Z,153845.66
2022-08-08T08:36:17.546Z,153773.16
2022-08-08T08:37:27.104Z,153460.16
2022-08-08T08:38:32.674Z,153222.16
2022-08-08T08:40:01.505Z,153365.66
2022-08-08T08:41:17.061Z,153424.56
2022-08-08T08:42:29.008Z,153709.31
2022-08-08T08:43:42.370Z,153434.34
2022-08-08T08:44:49.444Z,153498.19
2022-08-08T08:45:57.111Z,153861.59
2022-08-08T08:47:02.805Z,154047.09
2022-08-08T08:48:09.778Z,154075.28
2022-08-08T08:49:25.638Z,153744.91
2022-08-08T08:50:34.696Z,153797.69
2022-08-08T08:51:51.150Z,153880.03
2022-08-08T08:52:59.814Z,154102.31
2022-08-08T08:54:03.231Z,154067.94
2022-08-08T08:55:13.722Z,154061.81
2022-08-08T08:56:25.109Z,154338.22
2022-08-08T08:57:38.041Z,154373.91
2022-08-08T08:58:46.827Z,154592.72
2022-08-08T09:00:05.697Z,154507.91
2022-08-08T09:01:18.831Z,154522.66
2022-08-08T09:02:26.320Z,154317.38
2022-08-08T09:03:46.937Z,154092.50
2022-08-08T09:04:59.293Z,153932.81
2022-08-08T09:06:02.761Z,153619.72
2022-08-08T09:07:39.505Z,153536.22
2022-08-08T09:08:58.181Z,153153.44
2022-08-08T09:10:01.299Z,153149.72
2022-08-08T09:11:15.534Z,152929.00
2022-08-08T09:12:23.139Z,152899.59
2022-08-08T09:13:28.252Z,152850.56
2022-08-08T09:14:32.459Z,152899.59
2022-08-08T09:15:40.975Z,152975.59
2022-08-08T09:16:46.244Z,152735.34
2022-08-08T09:17:55.225Z,152955.97
2022-08-08T09:18:59.487Z,153150.94
2022-08-08T09:21:59.245Z,152916.72
2022-08-08T09:22:00.318Z,153002.59
2022-08-08T09:22:49.823Z,153030.78
2022-08-08T09:23:54.877Z,153112.94
2022-08-08T09:24:58.987Z,153148.50
2022-08-08T09:26:09.290Z,153196.34
2022-08-08T09:27:20.788Z,153089.63
2022-08-08T09:28:38.476Z,153038.13
2022-08-08T09:30:11.246Z,152951.03
2022-08-08T09:31:42.337Z,152781.88
2022-08-08T09:33:12.663Z,152623.84
2022-08-08T09:34:32.799Z,152578.50
2022-08-08T09:35:48.908Z,152558.88
2022-08-08T09:37:57.906Z,152452.31
2022-08-08T09:38:53.830Z,152473.13
2022-08-08T09:40:10.802Z,152460.91
2022-08-08T09:41:17.628Z,152377.59
2022-08-08T09:42:25.715Z,152223.28
2022-08-08T09:44:05.555Z,152218.41
2022-08-08T09:44:55.835Z,152367.81
2022-08-08T09:46:03.904Z,152313.91
2022-08-08T09:48:03.899Z,152282.03
2022-08-08T09:48:36.626Z,152424.09
2022-08-08T09:49:49.813Z,152304.13
2022-08-08T09:52:57.633Z,152486.59
2022-08-08T09:54:06.822Z,152495.19
2022-08-08T09:55:17.420Z,152617.69
2022-08-08T09:56:44.414Z,152911.81
2022-08-08T09:57:56.967Z,152990.34
2022-08-08T09:59:15.299Z,153024.66
2022-08-08T10:00:37.660Z,153267.50
2022-08-08T10:01:59.490Z,153386.53
2022-08-08T10:03:06.028Z,153446.59
2022-08-08T10:04:15.244Z,153587.81
2022-08-08T10:05:39.797Z,153708.09
2022-08-08T10:06:53.078Z,153765.78
2022-08-08T10:08:00.531Z,153622.16
2022-08-08T10:09:03.622Z,153539.91
2022-08-08T10:10:07.091Z,153546.03
2022-08-08T10:12:22.999Z,153387.75
2022-08-08T10:12:53.042Z,153273.63
2022-08-08T10:14:02.978Z,153336.19
2022-08-08T10:15:18.735Z,153407.34
2022-08-08T10:16:22.307Z,153461.38
2022-08-08T10:17:58.099Z,153487.16
2022-08-08T10:19:04.263Z,153498.19
2022-08-08T10:20:07.190Z,153382.84
2022-08-08T10:21:24.788Z,153471.19
2022-08-08T10:22:32.017Z,153603.75
2022-08-08T10:23:42.278Z,153679.81
2022-08-08T10:24:48.011Z,153817.41
2022-08-08T10:25:57.161Z,153961.06
2022-08-08T10:27:12.983Z,154121.97
2022-08-08T10:28:17.303Z,154260.81
2022-08-08T10:29:43.844Z,154500.50
2022-08-08T10:31:01.694Z,154741.53
2022-08-08T10:32:28.199Z,154921.09
2022-08-08T10:33:38.534Z,155053.94
2022-08-08T10:35:01.369Z,154943.25
2022-08-08T10:36:20.565Z,154921.09
2022-08-08T10:37:34.563Z,155041.66
2022-08-08T10:38:38.068Z,154841.16
2022-08-08T10:39:53.696Z,154697.25
2022-08-08T10:41:02.321Z,154605.00
2022-08-08T10:42:16.359Z,154660.34
2022-08-08T10:43:20.042Z,154302.59
2022-08-08T10:44:35.409Z,154082.69
2022-08-08T10:45:56.800Z,153816.19
2022-08-08T10:47:14.396Z,154380.09
2022-08-08T10:48:17.261Z,154436.56
2022-08-08T10:49:26.780Z,154475.94
2022-08-08T10:50:47.215Z,154857.13
2022-08-08T10:51:51.090Z,154921.09
2022-08-08T10:53:02.645Z,155260.66
2022-08-08T10:54:06.947Z,155153.63
2022-08-08T10:55:39.498Z,155273.00
2022-08-08T10:56:43.122Z,155629.97
2022-08-08T10:57:50.754Z,155292.66
2022-08-08T10:59:04.585Z,155572.13
2022-08-08T11:00:11.800Z,155615.25
2022-08-08T11:01:15.752Z,155319.78
2022-08-08T11:02:31.365Z,155538.91
2022-08-08T11:04:00.752Z,155418.25
2022-08-08T11:05:15.125Z,155400.97
2022-08-08T11:06:20.804Z,155061.31
2022-08-08T11:08:31.218Z,154661.56
2022-08-08T11:09:09.983Z,154505.41
2022-08-08T11:10:28.575Z,154473.44
2022-08-08T11:12:06.439Z,154399.72
2022-08-08T11:13:30.061Z,154190.81
2022-08-08T11:14:28.030Z,154239.91
2022-08-08T11:15:31.249Z,154099.84
2022-08-08T11:16:42.358Z,154063.03
2022-08-08T11:17:59.966Z,153938.97
2022-08-08T11:19:05.013Z,153839.47
2022-08-08T11:20:10.947Z,153846.88
2022-08-08T11:21:19.768Z,153797.69
2022-08-08T11:22:29.687Z,153515.38
2022-08-08T11:23:35.025Z,153495.75
2022-08-08T11:24:37.813Z,153149.72
2022-08-08T11:25:51.657Z,153014.81
2022-08-08T11:27:03.055Z,153196.34
2022-08-08T11:28:29.033Z,152987.91
2022-08-08T11:29:50.778Z,153105.59
2022-08-08T11:31:00.418Z,153206.13
2022-08-08T11:32:04.271Z,153110.50
2022-08-08T11:33:12.423Z,153000.13
2022-08-08T11:34:23.024Z,152889.81
2022-08-08T11:35:37.746Z,153056.53
2022-08-08T11:36:44.830Z,153022.22
2022-08-08T11:38:36.837Z,152994.03
2022-08-08T11:39:18.021Z,153157.13
2022-08-08T11:40:26.785Z,153061.44
2022-08-08T11:41:32.390Z,153125.22
2022-08-08T11:42:37.011Z,153044.25
2022-08-08T11:43:42.229Z,153000.13
2022-08-08T11:44:45.916Z,153024.66
2022-08-08T11:46:13.487Z,152860.38
2022-08-08T11:47:17.120Z,152913.06
2022-08-08T11:48:20.895Z,152860.38
2022-08-08T11:49:24.978Z,152938.81
2022-08-08T11:50:30.669Z,152712.06
2022-08-08T11:51:40.179Z,152862.84
2022-08-08T11:52:53.454Z,152773.31
2022-08-08T11:54:01.205Z,152667.94
2022-08-08T11:55:26.555Z,152712.06
2022-08-08T11:56:35.662Z,152960.88
2022-08-08T11:57:45.253Z,152877.50
2022-08-08T11:58:55.700Z,153066.34
2022-08-08T12:00:05.797Z,153260.16
2022-08-08T12:01:17.235Z,153157.13
2022-08-08T12:02:41.637Z,153400.00
2022-08-08T12:03:50.181Z,153557.09
2022-08-08T12:05:12.488Z,153708.09
2022-08-08T12:06:19.489Z,153736.31
2022-08-08T12:07:25.511Z,153414.72
2022-08-08T12:08:35.771Z,153447.81
2022-08-08T12:09:56.901Z,153238.06
2022-08-08T12:11:09.716Z,153374.25
2022-08-08T12:12:28.842Z,153390.22
2022-08-08T12:13:37.715Z,153155.88
2022-08-08T12:15:01.308Z,153343.56
2022-08-08T12:16:17.961Z,153317.81
2022-08-08T12:17:32.340Z,153306.75
2022-08-08T12:18:48.426Z,153098.25
2022-08-08T12:19:56.909Z,153084.69
2022-08-08T12:20:59.951Z,152938.81
2022-08-08T12:22:13.287Z,152919.16
2022-08-08T12:23:43.058Z,153032.00
2022-08-08T12:24:59.643Z,152882.41
2022-08-08T12:26:10.143Z,152960.88
2022-08-08T12:27:19.751Z,152908.16
2022-08-08T12:28:22.638Z,152978.06
2022-08-08T12:29:42.456Z,152883.63
2022-08-08T12:30:49.912Z,152720.63
2022-08-08T12:32:02.922Z,152887.34
2022-08-08T12:33:19.646Z,152884.84
2022-08-08T12:34:40.279Z,152888.56
2022-08-08T12:35:52.460Z,152732.91
2022-08-08T12:37:05.263Z,152830.91
2022-08-08T12:38:17.793Z,152904.47
2022-08-08T12:39:56.172Z,153012.38
2022-08-08T12:40:57.008Z,153032.00
2022-08-08T12:42:04.739Z,153138.69
2022-08-08T12:43:07.702Z,153246.63
2022-08-08T12:44:32.241Z,153159.56
2022-08-08T12:45:59.275Z,153176.69
2022-08-08T12:47:01.210Z,153149.72
2022-08-08T12:48:37.594Z,153093.34
2022-08-08T12:49:43.592Z,153029.56
2022-08-08T12:50:57.266Z,153186.53
2022-08-08T12:52:01.296Z,153402.44
2022-08-08T12:53:03.507Z,153485.94
2022-08-08T12:54:24.059Z,153373.00
2022-08-08T12:55:35.700Z,153473.66
2022-08-08T12:56:50.021Z,153639.31
2022-08-08T12:57:56.571Z,153714.25
2022-08-08T12:58:59.961Z,153792.81
2022-08-08T13:00:12.164Z,153883.69
2022-08-08T13:01:16.901Z,153581.69
2022-08-08T13:02:33.516Z,153689.66
2022-08-08T13:03:46.130Z,153662.66
2022-08-08T13:04:55.917Z,153733.88
2022-08-08T13:06:13.887Z,153814.97
2022-08-08T13:07:17.475Z,153710.53
2022-08-08T13:08:36.530Z,153775.59
2022-08-08T13:10:10.818Z,154099.84
2022-08-08T13:12:17.962Z,154258.34
2022-08-08T13:13:06.069Z,154128.13
2022-08-08T13:14:15.430Z,154317.38
2022-08-08T13:15:20.226Z,154171.13
2022-08-08T13:16:26.029Z,154311.25
2022-08-08T13:18:08.815Z,154291.56
2022-08-08T13:19:02.592Z,154080.25
2022-08-08T13:20:15.399Z,154259.59
2022-08-08T13:21:20.341Z,154145.31
2022-08-08T13:22:24.652Z,153859.13
2022-08-08T13:23:30.730Z,153922.97
2022-08-08T13:24:48.415Z,153880.03
2022-08-08T13:26:01.607Z,153963.53
2022-08-08T13:27:11.839Z,153963.53
2022-08-08T13:28:14.649Z,153927.88
2022-08-08T13:29:21.154Z,154097.41
2022-08-08T13:30:26.661Z,154050.75
2022-08-08T13:31:30.598Z,154125.66
2022-08-08T13:32:39.493Z,153902.09
2022-08-08T13:33:45.174Z,154039.63
2022-08-08T13:34:52.817Z,154188.34
2022-08-08T13:35:56.690Z,154189.56
2022-08-08T13:36:59.019Z,153947.59
2022-08-08T13:38:06.362Z,153964.75
2022-08-08T13:39:09.858Z,153922.97
2022-08-08T13:40:17.405Z,153861.59
2022-08-08T13:41:21.804Z,153864.03
2022-08-08T13:42:25.388Z,153725.28
2022-08-08T13:43:27.935Z,153736.31
2022-08-08T13:44:30.541Z,153768.25
2022-08-08T13:45:33.520Z,153711.78
2022-08-08T13:46:37.799Z,153645.44
2022-08-08T13:47:40.547Z,153272.41
2022-08-08T13:49:11.368Z,153409.81
2022-08-08T13:50:38.765Z,153461.38
2022-08-08T13:51:58.957Z,153580.41
2022-08-08T13:53:02.965Z,153498.19
2022-08-08T13:54:31.192Z,153492.06
2022-08-08T13:55:36.676Z,153418.44
2022-08-08T13:56:53.645Z,153387.75
2022-08-08T13:58:07.982Z,153403.69
2022-08-08T13:59:32.585Z,153451.53
2022-08-08T14:00:42.407Z,153268.72
2022-08-08T14:01:57.954Z,153358.31
2022-08-08T14:03:20.087Z,153247.84
2022-08-08T14:04:26.069Z,153250.34
2022-08-08T14:05:34.087Z,153269.94
2022-08-08T14:06:44.632Z,153250.34
2022-08-08T14:07:49.892Z,153246.63
2022-08-08T14:08:56.751Z,153239.28
2022-08-08T14:10:05.254Z,153365.66
2022-08-08T14:11:15.796Z,153164.47
2022-08-08T14:12:19.577Z,153235.63
2022-08-08T14:13:33.654Z,153252.81
2022-08-08T14:14:44.967Z,153370.56
2022-08-08T14:15:50.551Z,153358.31
2022-08-08T14:16:53.071Z,153277.31
2022-08-08T14:18:34.912Z,153284.69
2022-08-08T14:19:56.955Z,153320.25
2022-08-08T14:21:02.589Z,153380.38
2022-08-08T14:22:36.859Z,153471.19
2022-08-08T14:24:04.179Z,153532.53
2022-08-08T14:25:15.359Z,153482.25
2022-08-08T14:26:28.204Z,153348.47
2022-08-08T14:27:33.278Z,153338.63
2022-08-08T14:28:37.615Z,153352.19
2022-08-08T14:29:52.837Z,153541.13
2022-08-08T14:31:07.587Z,153503.09
2022-08-08T14:32:16.068Z,153360.75
2022-08-08T14:33:36.534Z,153381.59
2022-08-08T14:34:39.058Z,153292.03